Spruce Creek, Pennsylvania
Current Conditions -  °F | °C
As of 5:53 PM on Thursday 23 Oct 2014 (Local Time) from KUNV Reporting Station
Broken Clouds Broken Clouds  
Wind Chill: 59°   Ceiling: 5500
Heat Index: 59°   Visibility: 10mi
Dew Point: 39°   Wind: 12mph
Humidity: 48%   Direction: 340°NNW
Pressure: 29.92"   Gusts: 21mph
Location:  40.61°N, 78.14°W
Report Text: KUNV 232153Z 34010G18KT 10SM BKN055 15/04 A2992
Loading
Personal Weather Stations






























Interactive Weather Map
Tropical Storm Tracking
New forecast layout! Learn more

10-Day Weather Forecast

Advertisements
Track Severe Weather on mobile